Terminal Aerodrome Forecast
Issued by NWS

Home | Current Version | Previous Version | Text Only | Print | Product List | Glossary On
Versions: 1 2 3 4 5 6 7 8 9 10 11 12 13 14 15 16 17 18 19
000
FTUS42 KGSP 022000 AAB
TAFGMU
TAF AMD
KGMU 022006Z 0220/0318 23006KT P6SM VCTS SCT050CB
     FM030100 26003KT P6SM VCSH BKN050
     FM030600 00000KT P6SM SCT045
     FM031300 03004KT P6SM SCT040=

USA.gov is the U.S. government's official web portal to all federal, state and local government web resources and services.